Time;durP1;ratioP1;P1;durP2;ratioP2;P2;SDS_P1;SDS_P2;PMS_P1;PMS_P2;Temp;Humidity;BMP_temperature;BMP_pressure;BME280_temperature;BME280_humidity;BME280_pressure;Samples;Min_cycle;Max_cycle;Signal;HPM_P1;HPM_P2
2021/01/24 00:02:14;;;;;;;16.67;15.27;;;;;;;1.43;90.01;98304.56;5030869;28;20164;-74
2021/01/24 00:04:39;;;;;;;15.63;14.20;;;;;;;1.53;89.43;98303.53;5034270;28;20187;-74
2021/01/24 00:07:04;;;;;;;15.50;14.30;;;;;;;1.61;89.71;98293.97;5033780;28;20172;-74
2021/01/24 00:09:30;;;;;;;14.93;13.77;;;;;;;1.74;88.79;98291.22;5033902;28;20206;-74
2021/01/24 00:11:55;;;;;;;15.27;14.13;;;;;;;1.67;89.06;98296.22;5032950;28;20693;-74
2021/01/24 00:14:20;;;;;;;18.07;16.60;;;;;;;1.72;88.80;98296.09;5034121;28;20631;-74
2021/01/24 00:16:46;;;;;;;16.97;15.43;;;;;;;1.88;87.95;98293.03;5033509;28;20534;-74
2021/01/24 00:22:42;;;;;;;16.83;15.33;;;;;;;1.82;87.86;98280.78;5033998;28;20179;-74
2021/01/24 00:25:08;;;;;;;15.97;14.67;;;;;;;1.97;87.31;98283.91;5034139;28;20440;-74
2021/01/24 00:27:33;;;;;;;16.37;14.97;;;;;;;2.00;86.96;98280.59;5034371;28;20290;-76
2021/01/24 00:29:59;;;;;;;16.00;14.60;;;;;;;1.97;86.51;98280.41;5040546;28;20193;-75
2021/01/24 00:32:24;;;;;;;19.70;17.63;;;;;;;1.13;89.41;98284.53;5034869;28;20172;-76
2021/01/24 00:34:49;;;;;;;18.80;17.10;;;;;;;1.41;89.28;98279.88;5033566;28;20187;-75
2021/01/24 00:37:15;;;;;;;18.57;16.93;;;;;;;1.63;89.13;98278.31;5032290;28;20203;-76
2021/01/24 00:39:40;;;;;;;19.33;17.53;;;;;;;1.83;88.41;98279.69;5013287;28;20181;-76
2021/01/24 00:42:06;;;;;;;18.27;16.57;;;;;;;1.92;87.41;98273.28;5024788;28;20183;-76
2021/01/24 00:44:31;;;;;;;17.60;15.90;;;;;;;1.96;87.35;98271.53;5033398;28;20278;-76
2021/01/24 00:46:57;;;;;;;17.87;16.07;;;;;;;1.99;86.89;98275.50;5031684;28;20677;-75
2021/01/24 00:49:22;;;;;;;17.30;15.80;;;;;;;1.95;87.48;98264.56;5019889;28;20298;-76
2021/01/24 00:51:48;;;;;;;17.97;16.57;;;;;;;1.75;87.75;98263.19;5013807;28;20188;-76
2021/01/24 00:54:13;;;;;;;19.67;17.87;;;;;;;1.35;88.67;98256.88;5013434;28;20223;-76
2021/01/24 00:56:38;;;;;;;21.57;19.37;;;;;;;1.17;89.48;98255.97;5013108;28;20597;-76
2021/01/24 00:59:03;;;;;;;19.60;17.80;;;;;;;1.23;89.90;98256.63;5013576;28;20708;-75
2021/01/24 01:01:29;;;;;;;21.07;19.07;;;;;;;1.40;89.31;98255.97;5013323;28;20180;-75
2021/01/24 01:03:54;;;;;;;20.77;18.70;;;;;;;1.18;89.91;98244.09;5013143;28;20187;-76
2021/01/24 01:06:19;;;;;;;18.03;16.53;;;;;;;1.48;89.87;98250.66;5011488;28;20204;-76
2021/01/24 01:08:45;;;;;;;18.90;17.27;;;;;;;1.63;89.35;98246.81;5012955;28;20210;-76
2021/01/24 01:11:10;;;;;;;17.93;16.33;;;;;;;1.71;89.14;98253.31;5012970;28;20276;-75
2021/01/24 01:13:35;;;;;;;17.70;16.13;;;;;;;1.85;88.67;98254.06;5012803;28;20172;-75
2021/01/24 01:16:01;;;;;;;18.50;17.00;;;;;;;1.64;88.34;98252.97;5012923;28;20227;-75
2021/01/24 01:18:28;;;;;;;20.13;18.17;;;;;;;1.54;88.92;98254.00;5011362;28;20648;-75
2021/01/24 01:20:53;;;;;;;17.37;15.90;;;;;;;1.69;88.44;98250.16;5012932;28;20173;-76
2021/01/24 01:23:19;;;;;;;15.70;14.40;;;;;;;1.70;88.04;98251.75;5012796;28;20183;-75
2021/01/24 01:25:44;;;;;;;15.40;14.20;;;;;;;1.84;87.68;98244.38;5013288;28;20192;-75
2021/01/24 01:28:09;;;;;;;15.77;14.57;;;;;;;1.81;87.37;98245.00;5012200;28;20746;-75
2021/01/24 01:30:35;;;;;;;14.37;13.27;;;;;;;1.75;87.30;98241.66;5013090;28;20188;-76
2021/01/24 01:33:00;;;;;;;14.67;13.33;;;;;;;1.72;87.44;98228.78;5013054;28;20200;-75
2021/01/24 01:35:25;;;;;;;14.63;13.33;;;;;;;1.86;86.80;98234.09;5012544;28;20670;-76
2021/01/24 01:37:51;;;;;;;14.93;13.83;;;;;;;1.92;86.83;98232.88;5012091;28;20263;-75
2021/01/24 01:40:16;;;;;;;14.60;13.13;;;;;;;1.89;86.72;98232.72;5012444;28;20168;-75
2021/01/24 01:42:41;;;;;;;15.33;13.83;;;;;;;1.83;86.68;98231.25;5012762;28;20172;-76
2021/01/24 01:45:07;;;;;;;15.70;14.23;;;;;;;1.76;86.88;98239.75;5012419;28;20530;-76
2021/01/24 01:47:34;;;;;;;15.60;14.10;;;;;;;1.74;87.03;98233.91;5012006;28;20284;-74
2021/01/24 01:49:59;;;;;;;15.53;14.33;;;;;;;1.44;87.73;98228.13;5012359;28;20412;-76
2021/01/24 01:52:26;;;;;;;16.40;15.00;;;;;;;1.22;88.49;98227.34;5010820;28;20436;-76
2021/01/24 01:54:53;;;;;;;17.47;15.90;;;;;;;1.15;88.97;98231.25;5012183;28;20513;-75
2021/01/24 01:57:20;;;;;;;17.33;15.60;;;;;;;1.17;89.17;98225.59;5010433;28;20180;-75
2021/01/24 01:59:45;;;;;;;17.87;16.37;;;;;;;1.21;89.14;98234.63;5012180;28;20176;-76
2021/01/24 02:02:23;;;;;;;17.67;16.27;;;;;;;1.10;89.64;98230.56;5012243;28;20420;-75
2021/01/24 02:05:10;;;;;;;18.07;16.33;;;;;;;0.96;89.86;98227.13;5012209;28;20584;-74
2021/01/24 02:08:09;;;;;;;19.63;17.93;;;;;;;0.93;89.93;98230.44;5011308;28;20467;-75
2021/01/24 02:10:51;;;;;;;17.10;15.50;;;;;;;1.11;90.04;98229.47;5011915;28;20431;-75
2021/01/24 02:13:39;;;;;;;17.10;15.60;;;;;;;1.30;89.10;98231.97;5013242;28;20165;-74
2021/01/24 02:16:07;;;;;;;17.80;16.10;;;;;;;1.30;89.14;98235.50;5030150;28;20906;-75
2021/01/24 02:18:34;;;;;;;16.80;15.40;;;;;;;1.31;88.77;98228.22;5031388;28;20418;-74
2021/01/24 02:21:14;;;;;;;16.70;15.07;;;;;;;1.30;88.68;98219.34;5031528;28;20449;-76
2021/01/24 02:23:41;;;;;;;17.50;16.10;;;;;;;1.06;88.72;98225.00;5031463;28;20423;-74
2021/01/24 02:26:15;;;;;;;18.90;17.10;;;;;;;0.88;89.54;98213.31;5030400;28;20176;-75
2021/01/24 02:29:01;;;;;;;21.57;18.10;;;;;;;0.82;90.40;98211.03;5031605;28;20199;-75
2021/01/24 02:31:29;;;;;;;19.47;17.57;;;;;;;1.09;90.12;98212.84;5029986;28;20419;-76
2021/01/24 02:33:56;;;;;;;18.10;16.60;;;;;;;1.16;89.78;98221.31;5031208;28;20441;-75
2021/01/24 02:36:26;;;;;;;17.00;15.60;;;;;;;1.39;89.14;98219.41;5029426;28;20234;-76
2021/01/24 02:38:53;;;;;;;17.57;16.07;;;;;;;1.32;88.88;98214.47;5031178;28;20418;-76
2021/01/24 02:41:19;;;;;;;18.30;16.80;;;;;;;1.05;88.81;98217.25;5031462;28;20180;-74
2021/01/24 02:43:46;;;;;;;19.93;18.20;;;;;;;1.08;89.14;98209.38;5031219;28;20988;-75
2021/01/24 02:46:14;;;;;;;19.90;18.20;;;;;;;1.06;89.11;98216.16;5029413;28;20461;-75
2021/01/24 02:48:42;;;;;;;21.07;19.27;;;;;;;0.70;90.40;98211.53;5031022;28;20203;-75
2021/01/24 02:51:08;;;;;;;19.40;17.87;;;;;;;0.69;90.71;98203.78;5029503;28;20282;-74
2021/01/24 02:53:34;;;;;;;21.20;19.27;;;;;;;0.74;91.06;98217.94;5030929;28;20847;-75
2021/01/24 02:56:01;;;;;;;21.30;19.33;;;;;;;0.75;90.86;98210.66;5030978;28;20218;-76
2021/01/24 02:58:28;;;;;;;19.37;17.70;;;;;;;0.95;91.06;98210.19;5030998;28;20494;-75
2021/01/24 03:00:53;;;;;;;19.10;17.40;;;;;;;1.08;90.42;98214.75;5031154;28;20418;-76
2021/01/24 03:03:18;;;;;;;19.60;17.57;;;;;;;1.25;89.59;98218.66;5030892;28;20426;-74
2021/01/24 03:05:44;;;;;;;19.80;18.10;;;;;;;0.86;89.91;98212.00;5030832;28;20172;-75
2021/01/24 03:08:09;;;;;;;19.43;17.83;;;;;;;1.10;89.88;98215.22;5030268;28;20455;-74
2021/01/24 03:10:35;;;;;;;19.43;17.50;;;;;;;1.37;89.47;98219.72;5030755;28;20692;-76
2021/01/24 03:13:17;;;;;;;17.90;16.40;;;;;;;1.58;88.26;98217.31;5030737;28;20188;-75
2021/01/24 03:15:44;;;;;;;17.40;16.00;;;;;;;1.70;87.91;98214.06;5030722;28;20187;-76
2021/01/24 03:18:16;;;;;;;17.50;16.20;;;;;;;1.73;87.69;98214.22;5030191;28;20182;-75
2021/01/24 03:20:43;;;;;;;18.67;17.13;;;;;;;1.61;87.62;98216.72;5030752;28;20411;-75
2021/01/24 03:23:09;;;;;;;18.00;16.50;;;;;;;1.55;87.76;98212.53;5030597;28;20510;-75
2021/01/24 03:25:37;;;;;;;18.70;16.97;;;;;;;1.07;88.42;98209.69;5029365;28;20211;-75
2021/01/24 03:28:03;;;;;;;20.40;18.50;;;;;;;0.72;89.83;98206.66;5030067;28;20632;-74
2021/01/24 03:30:28;;;;;;;21.90;19.80;;;;;;;0.66;90.37;98213.25;5029458;28;20183;-75
2021/01/24 03:32:55;;;;;;;21.40;19.47;;;;;;;0.73;90.75;98202.13;5030380;28;20446;-75
2021/01/24 03:35:20;;;;;;;22.73;20.43;;;;;;;0.73;90.69;98210.97;5030489;28;20211;-75
2021/01/24 03:37:45;;;;;;;24.03;21.77;;;;;;;0.52;90.99;98213.28;5031674;28;20453;-74
2021/01/24 03:40:11;;;;;;;23.97;21.37;;;;;;;0.42;91.88;98210.78;5034687;28;20176;-75
2021/01/24 03:42:36;;;;;;;28.40;24.30;;;;;;;0.33;92.13;98203.75;5033875;28;20403;-76
2021/01/24 03:45:03;;;;;;;28.63;24.20;;;;;;;0.31;92.76;98200.56;5032662;28;20230;-74
2021/01/24 03:47:29;;;;;;;26.67;23.87;;;;;;;0.31;92.67;98198.69;5034021;28;20211;-74
2021/01/24 03:49:54;;;;;;;27.43;23.93;;;;;;;0.37;92.96;98204.72;5034517;28;20419;-74
2021/01/24 03:52:19;;;;;;;27.50;24.23;;;;;;;0.31;92.84;98192.50;5034381;28;20708;-75
2021/01/24 03:54:45;;;;;;;32.10;23.40;;;;;;;0.38;92.52;98192.91;5034295;28;20230;-75
2021/01/24 03:57:10;;;;;;;26.73;23.87;;;;;;;0.27;92.75;98190.41;5033703;28;20183;-74
2021/01/24 03:59:35;;;;;;;28.07;25.13;;;;;;;0.27;92.89;98192.28;5034153;28;20230;-75
2021/01/24 04:02:01;;;;;;;24.93;22.30;;;;;;;0.47;92.66;98191.91;5034273;28;20175;-74
2021/01/24 04:04:26;;;;;;;24.47;21.93;;;;;;;0.73;92.35;98191.38;5034151;28;20258;-75
2021/01/24 04:06:51;;;;;;;23.13;20.97;;;;;;;0.93;92.42;98195.47;5033660;28;20176;-75
2021/01/24 04:09:16;;;;;;;21.50;19.57;;;;;;;1.12;91.60;98198.78;5033995;28;20212;-74
2021/01/24 04:11:42;;;;;;;20.03;18.40;;;;;;;1.24;90.61;98200.94;5034317;28;20271;-75
2021/01/24 04:14:07;;;;;;;20.20;18.40;;;;;;;1.29;90.29;98206.19;5033997;28;20214;-75
2021/01/24 04:16:32;;;;;;;21.43;19.43;;;;;;;1.36;89.46;98199.28;5033400;28;20198;-74
2021/01/24 04:18:58;;;;;;;20.47;18.50;;;;;;;1.29;89.21;98195.44;5033869;28;20524;-75
2021/01/24 04:21:23;;;;;;;20.70;18.97;;;;;;;0.68;90.03;98188.75;5034218;28;20195;-75
2021/01/24 04:23:48;;;;;;;24.87;22.30;;;;;;;0.51;90.50;98189.41;5033706;28;20184;-74
2021/01/24 04:26:13;;;;;;;29.73;23.50;;;;;;;0.24;91.31;98184.84;5033349;28;20257;-74
2021/01/24 04:28:39;;;;;;;25.87;23.23;;;;;;;0.22;91.95;98181.66;5033899;28;20211;-76
2021/01/24 04:31:04;;;;;;;26.53;23.93;;;;;;;0.22;92.75;98181.66;5034058;28;20176;-75
2021/01/24 04:33:30;;;;;;;29.87;24.63;;;;;;;0.45;92.47;98182.56;5033622;28;20178;-76
2021/01/24 04:35:55;;;;;;;24.03;21.73;;;;;;;0.60;92.11;98182.22;5033553;28;20200;-75
2021/01/24 04:38:20;;;;;;;22.97;20.80;;;;;;;0.54;91.58;98178.03;5032951;28;20191;-75
2021/01/24 04:40:46;;;;;;;23.00;21.00;;;;;;;0.80;91.40;98180.97;5033550;28;20176;-74
2021/01/24 04:43:11;;;;;;;19.97;18.20;;;;;;;0.96;90.29;98178.75;5032198;28;20175;-76
2021/01/24 04:45:37;;;;;;;20.60;18.53;;;;;;;1.07;89.55;98180.09;5033423;28;20168;-75
2021/01/24 04:48:03;;;;;;;20.77;18.53;;;;;;;1.12;88.54;98186.13;5032545;28;20200;-74
2021/01/24 04:50:29;;;;;;;19.87;18.07;;;;;;;1.11;88.26;98175.69;5033264;28;20184;-75
2021/01/24 04:52:56;;;;;;;20.67;18.57;;;;;;;1.14;88.39;98181.25;5033413;28;20239;-76
2021/01/24 04:55:22;;;;;;;20.13;18.13;;;;;;;1.19;87.67;98178.47;5032023;28;20910;-75
2021/01/24 04:57:48;;;;;;;19.03;17.33;;;;;;;1.24;87.68;98165.97;5032984;28;20419;-74
2021/01/24 05:00:13;;;;;;;19.03;17.17;;;;;;;1.28;87.02;98173.13;5031753;28;20774;-75
2021/01/24 05:02:40;;;;;;;18.57;17.00;;;;;;;1.25;86.42;98162.19;5033114;28;20176;-75
2021/01/24 05:05:05;;;;;;;19.83;18.13;;;;;;;1.25;85.99;98162.19;5033332;28;20172;-75
2021/01/24 05:07:31;;;;;;;18.60;17.10;;;;;;;1.21;86.14;98161.22;5032536;28;20651;-74
2021/01/24 05:09:57;;;;;;;18.87;17.17;;;;;;;1.25;86.32;98156.81;5033079;28;20179;-75
2021/01/24 05:12:23;;;;;;;19.53;17.90;;;;;;;1.26;85.97;98161.09;5032762;28;20172;-75
2021/01/24 05:14:49;;;;;;;18.60;17.00;;;;;;;1.22;86.17;98160.91;5031501;28;20639;-74
2021/01/24 05:17:15;;;;;;;19.30;17.50;;;;;;;1.28;86.09;98164.25;5033033;28;20171;-74
2021/01/24 05:19:43;;;;;;;18.80;17.37;;;;;;;1.31;85.67;98166.34;5033412;28;20180;-75
2021/01/24 05:22:08;;;;;;;19.40;17.70;;;;;;;1.18;86.58;98165.31;5031785;28;20176;-75
2021/01/24 05:24:34;;;;;;;20.40;18.37;;;;;;;0.84;87.36;98161.25;5032782;28;20429;-75
2021/01/24 05:27:11;;;;;;;22.13;20.00;;;;;;;0.51;88.82;98168.72;5032413;28;20205;-73
2021/01/24 05:29:40;;;;;;;21.00;19.20;;;;;;;0.14;89.98;98164.34;5032952;28;20176;-74
2021/01/24 05:32:05;;;;;;;23.13;21.10;;;;;;;0.04;90.92;98174.53;5032536;28;20422;-75
2021/01/24 05:34:31;;;;;;;23.07;20.63;;;;;;;0.13;91.30;98167.34;5031290;28;20431;-74
2021/01/24 05:36:58;;;;;;;23.07;21.03;;;;;;;0.34;91.01;98165.06;5032523;28;20191;-74
2021/01/24 05:39:24;;;;;;;21.57;19.57;;;;;;;0.50;91.14;98163.63;5032440;28;20237;-74
2021/01/24 05:41:51;;;;;;;21.27;19.13;;;;;;;0.69;90.57;98172.34;5032384;28;20229;-74
2021/01/24 05:44:18;;;;;;;19.93;18.23;;;;;;;0.86;89.95;98161.72;5032638;28;20176;-74
2021/01/24 05:46:45;;;;;;;19.20;17.70;;;;;;;1.00;88.27;98169.75;5032036;28;20219;-74
2021/01/24 05:49:12;;;;;;;18.10;16.60;;;;;;;1.03;87.69;98179.91;5032182;28;20214;-74
2021/01/24 05:51:38;;;;;;;17.73;16.33;;;;;;;1.02;86.52;98181.03;5032530;28;20525;-74
2021/01/24 05:54:03;;;;;;;17.53;16.13;;;;;;;0.96;86.74;98182.22;5031908;28;20561;-74
2021/01/24 05:56:29;;;;;;;18.03;16.43;;;;;;;0.91;86.40;98187.72;5031550;28;20168;-74
2021/01/24 05:58:56;;;;;;;17.67;15.93;;;;;;;0.89;86.11;98185.34;5032426;28;20191;-74
2021/01/24 06:01:26;;;;;;;16.53;15.23;;;;;;;0.81;86.03;98182.56;5031122;28;20535;-74
2021/01/24 06:03:54;;;;;;;17.30;15.77;;;;;;;0.65;86.47;98178.63;5031966;28;20437;-74
2021/01/24 06:06:20;;;;;;;18.97;16.97;;;;;;;0.63;87.23;98186.19;5031546;28;20419;-74
2021/01/24 06:08:46;;;;;;;18.63;16.93;;;;;;;0.63;87.20;98187.00;5031762;28;20473;-74
2021/01/24 06:11:12;;;;;;;18.73;17.03;;;;;;;0.69;87.56;98190.34;5031822;28;20654;-75
2021/01/24 06:13:37;;;;;;;17.87;16.17;;;;;;;0.59;87.46;98186.00;5031815;28;20407;-74
2021/01/24 06:16:13;;;;;;;18.80;17.10;;;;;;;0.50;86.87;98196.66;5031834;28;20250;-74
2021/01/24 06:18:57;;;;;;;18.80;17.00;;;;;;;0.39;86.91;98191.78;5032030;28;20507;-75
2021/01/24 06:21:53;;;;;;;18.80;17.17;;;;;;;0.42;87.85;98197.34;5030709;28;20411;-75
2021/01/24 06:24:26;;;;;;;17.10;15.60;;;;;;;0.39;88.30;98197.97;5030037;28;21012;-74
2021/01/24 06:26:58;;;;;;;18.67;16.80;;;;;;;0.29;88.42;98206.25;5032139;28;20770;-74
2021/01/24 06:29:25;;;;;;;18.90;17.10;;;;;;;0.24;88.20;98206.31;5033389;28;20505;-75
2021/01/24 06:31:53;;;;;;;19.30;17.50;;;;;;;0.29;88.84;98208.94;5031932;28;20496;-74
2021/01/24 06:34:35;;;;;;;19.50;17.80;;;;;;;0.36;89.35;98209.31;5032007;28;20773;-75
2021/01/24 06:37:05;;;;;;;23.17;20.83;;;;;;;0.05;90.64;98213.69;5031089;28;20894;-74
2021/01/24 06:39:32;;;;;;;22.30;20.10;;;;;;;0.09;91.20;98215.47;5032023;28;20422;-74
2021/01/24 06:41:57;;;;;;;22.33;20.43;;;;;;;0.10;91.07;98221.63;5031378;28;20425;-75
2021/01/24 06:44:37;;;;;;;25.90;22.50;;;;;;;0.01;91.50;98220.75;5031384;28;20786;-75
2021/01/24 06:47:04;;;;;;;23.63;21.17;;;;;;;0.22;91.43;98224.63;5030793;28;20678;-74
2021/01/24 06:49:43;;;;;;;22.50;20.10;;;;;;;0.48;90.86;98230.28;5031092;28;20568;-74
2021/01/24 06:52:35;;;;;;;21.77;19.53;;;;;;;0.64;90.35;98228.09;5031355;28;20471;-74
2021/01/24 06:55:27;;;;;;;20.80;18.80;;;;;;;0.76;90.56;98239.91;5028928;28;20431;-74
2021/01/24 06:57:52;;;;;;;22.60;19.83;;;;;;;0.75;90.54;98245.59;5029463;28;20537;-74
2021/01/24 07:00:20;;;;;;;23.03;20.63;;;;;;;0.80;90.17;98248.16;5031182;28;20965;-74
2021/01/24 07:02:46;;;;;;;21.17;19.37;;;;;;;0.89;89.50;98246.38;5032153;28;20219;-76
2021/01/24 07:05:16;;;;;;;20.70;18.57;;;;;;;0.92;89.79;98253.81;5037942;28;20415;-75
2021/01/24 07:07:47;;;;;;;20.40;18.67;;;;;;;0.93;89.74;98258.09;5032258;28;20215;-76
2021/01/24 07:10:39;;;;;;;21.90;19.53;;;;;;;0.42;90.29;98259.13;5030022;28;20878;-76
2021/01/24 07:13:26;;;;;;;22.40;20.40;;;;;;;0.18;91.03;98264.72;5025207;28;20470;-75
2021/01/24 07:15:55;;;;;;;24.87;21.93;;;;;;;0.13;91.77;98261.31;5031677;28;20442;-76
2021/01/24 07:18:21;;;;;;;28.33;22.30;;;;;;;0.13;91.74;98270.16;5030754;28;20985;-75
2021/01/24 07:20:47;;;;;;;24.93;22.30;;;;;;;0.04;91.73;98273.84;5031151;28;20423;-75
2021/01/24 07:23:13;;;;;;;24.97;22.43;;;;;;;-0.02;92.42;98276.59;5029331;28;20426;-76
2021/01/24 07:25:39;;;;;;;24.53;21.87;;;;;;;0.06;92.42;98272.44;5030639;28;20176;-76
2021/01/24 07:28:06;;;;;;;24.57;22.03;;;;;;;-0.02;92.23;98273.09;5029978;28;20816;-76
2021/01/24 07:30:32;;;;;;;31.03;24.23;;;;;;;-0.14;93.02;98273.59;5029175;28;20211;-75
2021/01/24 07:32:58;;;;;;;26.83;23.07;;;;;;;-0.15;92.88;98280.03;5030981;28;20917;-75
2021/01/24 07:35:23;;;;;;;27.30;22.60;;;;;;;0.01;92.96;98288.66;5030370;28;20183;-76
2021/01/24 07:37:50;;;;;;;25.20;22.57;;;;;;;0.03;93.09;98296.41;5029889;28;20179;-75
2021/01/24 07:40:18;;;;;;;27.50;23.97;;;;;;;-0.14;93.58;98300.44;5030583;28;20180;-75
2021/01/24 07:42:43;;;;;;;35.23;25.50;;;;;;;-0.27;94.26;98298.50;5030335;28;20835;-75
2021/01/24 07:45:09;;;;;;;31.33;25.90;;;;;;;-0.31;94.44;98303.63;5030373;28;20841;-76
2021/01/24 07:47:35;;;;;;;41.23;26.83;;;;;;;-0.36;94.69;98311.78;5028449;28;20206;-75
2021/01/24 07:50:00;;;;;;;39.03;27.53;;;;;;;-0.37;95.12;98320.91;5030427;28;20603;-72
2021/01/24 07:52:26;;;;;;;38.63;28.77;;;;;;;-0.40;94.87;98323.41;5028890;28;20651;-74
2021/01/24 07:54:51;;;;;;;41.83;28.53;;;;;;;-0.42;95.45;98329.06;5030505;28;20226;-72
2021/01/24 07:57:17;;;;;;;43.70;29.77;;;;;;;-0.44;95.61;98320.47;5028479;28;20179;-73
2021/01/24 07:59:43;;;;;;;52.30;32.83;;;;;;;-0.50;95.65;98328.91;5030329;28;20209;-72
2021/01/24 08:02:11;;;;;;;55.20;33.80;;;;;;;-0.48;95.92;98326.72;5030142;28;20176;-76
2021/01/24 08:04:36;;;;;;;57.23;34.83;;;;;;;-0.48;96.26;98330.19;5030224;28;20419;-75
2021/01/24 08:07:07;;;;;;;57.10;35.67;;;;;;;-0.46;96.26;98343.31;5030004;28;20503;-81
2021/01/24 08:09:34;;;;;;;59.77;36.37;;;;;;;-0.50;96.33;98340.44;5030301;28;20238;-74
2021/01/24 08:12:05;;;;;;;58.00;36.73;;;;;;;-0.48;96.45;98350.84;5030223;28;20424;-74
2021/01/24 08:14:31;;;;;;;59.57;35.20;;;;;;;-0.47;96.95;98342.53;5030193;28;20823;-74
2021/01/24 08:16:56;;;;;;;67.67;38.73;;;;;;;-0.46;96.70;98351.38;5029685;28;20502;-74
2021/01/24 08:19:24;;;;;;;67.10;40.47;;;;;;;-0.51;97.06;98357.59;5032661;28;20172;-74
2021/01/24 08:21:51;;;;;;;69.17;38.37;;;;;;;-0.50;97.02;98359.19;5030180;28;20230;-75
2021/01/24 08:24:16;;;;;;;80.33;42.93;;;;;;;-0.50;97.07;98355.72;5030858;28;20522;-74
2021/01/24 08:26:42;;;;;;;74.07;41.97;;;;;;;-0.45;97.01;98369.03;5033463;28;20521;-74
2021/01/24 08:29:08;;;;;;;78.93;44.30;;;;;;;-0.47;96.90;98365.88;5032316;28;20211;-75
2021/01/24 08:31:34;;;;;;;75.40;39.83;;;;;;;-0.41;97.25;98370.88;5033724;28;20176;-72
2021/01/24 08:34:00;;;;;;;77.67;44.63;;;;;;;-0.45;97.17;98374.41;5033880;28;20361;-74
2021/01/24 08:36:28;;;;;;;79.10;43.37;;;;;;;-0.42;97.46;98379.22;5033197;28;20421;-74
2021/01/24 08:38:58;;;;;;;76.97;45.03;;;;;;;-0.39;97.01;98386.69;5033288;28;21044;-74
2021/01/24 08:41:42;;;;;;;83.97;46.23;;;;;;;-0.52;97.89;98388.19;5032383;28;20418;-74
2021/01/24 08:44:15;;;;;;;84.97;44.03;;;;;;;-0.47;97.47;98390.00;5034149;28;20426;-75
2021/01/24 08:46:43;;;;;;;80.20;42.90;;;;;;;-0.48;97.61;98399.13;5033434;28;20422;-72
2021/01/24 08:49:10;;;;;;;64.43;38.10;;;;;;;-0.48;97.81;98399.13;5033238;28;20795;-74
2021/01/24 08:51:43;;;;;;;72.50;39.93;;;;;;;-0.49;97.24;98400.22;5033149;28;20430;-74
2021/01/24 08:54:34;;;;;;;65.30;38.07;;;;;;;-0.52;97.60;98406.97;5033853;28;20422;-74
2021/01/24 08:57:11;;;;;;;58.90;35.03;;;;;;;-0.46;97.58;98408.47;5032775;28;20754;-73
2021/01/24 08:59:37;;;;;;;57.80;34.20;;;;;;;-0.50;98.13;98412.03;5032137;28;20610;-73
2021/01/24 09:02:03;;;;;;;64.77;36.47;;;;;;;-0.53;97.57;98413.41;5033475;28;20415;-72
2021/01/24 09:04:34;;;;;;;146.93;85.00;;;;;;;-0.52;98.14;98415.00;5033485;28;20444;-73
2021/01/24 09:07:00;;;;;;;102.07;50.57;;;;;;;-0.48;97.40;98423.28;5032841;28;20772;-72
2021/01/24 09:09:29;;;;;;;88.27;46.77;;;;;;;-0.51;97.70;98426.53;5033353;28;20560;-72
2021/01/24 09:11:55;;;;;;;119.27;60.40;;;;;;;-0.45;98.04;98425.38;5031791;28;20426;-73
2021/01/24 09:14:21;;;;;;;142.17;60.13;;;;;;;-0.51;97.62;98431.91;5032907;28;20492;-72
2021/01/24 09:16:58;;;;;;;88.47;43.43;;;;;;;-0.43;98.27;98429.38;5031266;28;20466;-73
2021/01/24 09:19:23;;;;;;;68.23;37.90;;;;;;;-0.49;98.06;98437.78;5032680;28;20183;-72
2021/01/24 09:21:52;;;;;;;65.50;38.53;;;;;;;-0.45;97.44;98436.91;5017789;28;20436;-73
2021/01/24 09:24:17;;;;;;;65.23;38.70;;;;;;;-0.50;97.62;98438.84;5016622;28;20173;-74
2021/01/24 09:26:44;;;;;;;72.00;40.13;;;;;;;-0.48;97.97;98442.03;5011105;28;20511;-73
2021/01/24 09:29:10;;;;;;;78.03;42.00;;;;;;;-0.52;97.80;98449.88;5019251;28;20221;-73
2021/01/24 09:31:35;;;;;;;76.50;42.20;;;;;;;-0.54;97.95;98449.38;5032911;28;20977;-73
2021/01/24 09:34:00;;;;;;;70.53;38.43;;;;;;;-0.51;98.14;98453.34;5033233;28;20188;-72
2021/01/24 09:36:26;;;;;;;74.83;39.87;;;;;;;-0.49;97.65;98461.91;5031135;28;20182;-75
2021/01/24 09:38:51;;;;;;;74.33;39.03;;;;;;;-0.47;98.05;98460.53;5032656;28;20264;-73
2021/01/24 09:41:19;;;;;;;71.80;40.10;;;;;;;-0.45;98.11;98461.03;5032580;28;20176;-73
2021/01/24 09:43:45;;;;;;;80.27;40.50;;;;;;;-0.46;98.38;98462.13;5033012;28;20795;-73
2021/01/24 09:46:11;;;;;;;74.70;41.80;;;;;;;-0.41;98.30;98472.81;5031622;28;20454;-73
2021/01/24 09:48:36;;;;;;;83.27;45.20;;;;;;;-0.38;97.71;98464.19;5032378;28;20667;-73
2021/01/24 09:51:02;;;;;;;91.27;47.27;;;;;;;-0.41;98.30;98472.00;5024623;28;20188;-73
2021/01/24 09:53:27;;;;;;;76.07;43.23;;;;;;;-0.31;97.25;98479.91;5011562;28;20549;-73
2021/01/24 09:55:53;;;;;;;77.10;44.97;;;;;;;-0.37;97.32;98475.69;5012908;28;20187;-72
2021/01/24 09:58:18;;;;;;;73.50;42.80;;;;;;;-0.31;97.35;98485.28;5012286;28;20201;-73
2021/01/24 10:00:43;;;;;;;75.07;43.37;;;;;;;-0.36;97.18;98478.09;5012782;28;20208;-74
2021/01/24 10:03:09;;;;;;;76.73;45.13;;;;;;;-0.34;97.54;98480.50;5012305;28;20185;-72
2021/01/24 10:05:35;;;;;;;78.83;42.60;;;;;;;-0.32;97.01;98478.31;5011400;28;20758;-73
2021/01/24 10:08:00;;;;;;;85.27;48.40;;;;;;;-0.36;97.32;98479.97;5011959;28;20455;-73
2021/01/24 10:10:25;;;;;;;79.37;47.90;;;;;;;-0.28;97.38;98487.41;5010912;28;20215;-73
2021/01/24 10:12:50;;;;;;;80.37;47.10;;;;;;;-0.24;96.79;98483.03;5011100;28;20177;-74
2021/01/24 10:15:16;;;;;;;77.80;44.17;;;;;;;-0.11;96.95;98490.38;5012499;28;20183;-73
2021/01/24 10:17:41;;;;;;;73.77;43.43;;;;;;;-0.05;96.71;98491.09;5012048;28;20176;-73
2021/01/24 10:20:07;;;;;;;69.10;40.93;;;;;;;-0.12;96.46;98496.84;5013404;28;20187;-73
2021/01/24 10:22:33;;;;;;;75.67;47.00;;;;;;;-0.23;96.43;98494.56;5014042;28;20611;-73
2021/01/24 10:24:58;;;;;;;68.67;43.23;;;;;;;-0.10;96.70;98499.22;5020402;28;20180;-72
2021/01/24 10:27:24;;;;;;;77.87;44.50;;;;;;;-0.17;96.43;98499.56;5011074;28;20415;-72
2021/01/24 10:29:49;;;;;;;94.23;54.20;;;;;;;-0.13;96.95;98505.19;5025641;28;20176;-73
2021/01/24 10:32:14;;;;;;;75.60;43.27;;;;;;;-0.11;96.82;98508.38;5032258;28;20567;-74
2021/01/24 10:34:40;;;;;;;72.40;45.17;;;;;;;-0.06;96.57;98503.72;5032224;28;20184;-73
2021/01/24 10:37:05;;;;;;;77.50;46.40;;;;;;;-0.14;96.29;98507.06;5031413;28;20183;-73
2021/01/24 10:39:30;;;;;;;80.83;45.73;;;;;;;0.01;96.77;98513.31;5021132;28;20185;-73
2021/01/24 10:41:56;;;;;;;80.97;45.10;;;;;;;-0.03;96.61;98513.88;5013147;28;20191;-74
2021/01/24 10:44:21;;;;;;;74.03;43.90;;;;;;;0.24;96.65;98510.53;5014784;28;20188;-73
2021/01/24 10:46:47;;;;;;;75.43;45.73;;;;;;;0.47;96.08;98516.13;5030839;28;20527;-73
2021/01/24 10:49:12;;;;;;;71.70;44.67;;;;;;;0.66;95.99;98519.56;5031415;28;20595;-73
2021/01/24 10:51:37;;;;;;;71.03;43.23;;;;;;;0.81;95.55;98521.22;5031772;28;20246;-73
2021/01/24 10:54:03;;;;;;;57.50;37.90;;;;;;;0.96;95.17;98525.53;5031470;28;20210;-74
2021/01/24 10:56:28;;;;;;;51.73;36.30;;;;;;;0.95;94.34;98530.09;5028266;28;20210;-73
2021/01/24 10:58:54;;;;;;;53.40;36.53;;;;;;;0.88;93.88;98530.50;5010047;28;20176;-73
2021/01/24 11:01:19;;;;;;;55.67;35.57;;;;;;;0.88;94.31;98538.56;5011676;28;20173;-73
2021/01/24 11:03:45;;;;;;;44.87;34.50;;;;;;;0.97;93.13;98537.88;5011437;28;20180;-73
2021/01/24 11:06:10;;;;;;;47.37;34.07;;;;;;;1.05;93.08;98534.50;5009745;28;20184;-74
2021/01/24 11:08:36;;;;;;;51.47;33.80;;;;;;;1.06;92.93;98542.28;5009894;28;20240;-73
2021/01/24 11:11:01;;;;;;;47.53;31.00;;;;;;;1.00;92.26;98540.75;5010063;28;20187;-73
2021/01/24 11:13:27;;;;;;;42.03;31.47;;;;;;;0.92;92.31;98541.44;5011652;28;20223;-77
2021/01/24 11:15:53;;;;;;;46.80;31.83;;;;;;;0.79;92.33;98550.28;5011385;28;20246;-74
2021/01/24 11:18:18;;;;;;;56.90;37.53;;;;;;;0.75;92.54;98552.75;5010839;28;20180;-73
2021/01/24 11:20:44;;;;;;;64.90;39.47;;;;;;;0.76;92.34;98553.56;5010021;28;20184;-72
2021/01/24 11:23:11;;;;;;;60.27;38.47;;;;;;;0.74;92.71;98547.69;5011336;28;20599;-74
2021/01/24 11:25:40;;;;;;;62.60;38.10;;;;;;;0.69;93.42;98559.28;5010102;28;20717;-73
2021/01/24 11:28:08;;;;;;;62.07;38.00;;;;;;;0.70;93.12;98562.75;5010471;28;20981;-73